Campanya meteocatpedra

Dades EMA Alfarràs

?
?
Resum diari
Dades diàries de l'estació meteorològica
Temperatura mitjana 8.7 °C
Temperatura màxima 13.3 °C 15:28 TU
Temperatura mínima 5.5 °C 7:36 TU
Humitat relativa mitjana 69%
Precipitació acumulada 1.1 mm
Ratxa màxima del vent (2 m) 20.2 km/h - 266º 11:18 TU

El tram horari està expressat en Temps Universal (TU). Cal sumar una hora en horari d'hivern i dues en horari d'estiu per passar a l'hora oficial.

Alfarràs

Metadades estació meteorol´gica
Municipi Alfarràs
Comarca Segrià
Altitud 268 m
Data alta 17.09.1997
Estat actual Operativa
Dades de període
Període
TU
TM
°C
TX
°C
TN
°C
HRM
%
PPT
mm
VVM (2 m)
km/h
DVM (2 m)
graus
VVX (2 m)
km/h
00:00 - 00:30 7.0 7.4 6.8 95 0.0 2.5 329 6.8
00:30 - 01:00 7.1 7.4 6.9 93 0.0 7.2 271 15.1
01:00 - 01:30 6.8 6.9 6.7 94 0.0 4.0 293 12.6
01:30 - 02:00 6.7 6.7 6.6 94 0.0 5.0 263 13.7
02:00 - 02:30 6.6 6.6 6.5 95 0.3 5.8 285 13.0
02:30 - 03:00 6.5 6.5 6.4 94 0.5 4.7 280 10.1
03:00 - 03:30 6.4 6.5 6.2 94 0.2 2.9 340 9.4
03:30 - 04:00 6.2 6.3 6.0 93 0.0 0.7 285 4.0
04:00 - 04:30 6.0 6.2 5.9 94 0.0 2.2 284 7.9
04:30 - 05:00 6.3 6.3 6.2 93 0.1 1.4 262 5.4
05:00 - 05:30 6.3 6.3 6.3 95 0.0 1.1 290 2.9
05:30 - 06:00 6.2 6.3 6.2 95 0.0 1.1 291 3.6
06:00 - 06:30 6.1 6.2 6.0 96 0.0 0.4 22 2.2
06:30 - 07:00 5.9 5.9 5.8 96 0.0 1.4 225 5.0
07:00 - 07:30 5.8 5.8 5.7 89 0.0 3.2 256 7.9
07:30 - 08:00 5.9 6.5 5.5 84 0.0 6.5 263 15.5
08:00 - 08:30 7.0 7.3 6.5 77 0.0 7.2 262 18.7
08:30 - 09:00 7.7 8.2 7.3 74 0.0 5.8 274 12.2
09:00 - 09:30 8.5 9.3 7.8 72 0.0 4.7 252 12.2
09:30 - 10:00 9.1 9.5 8.8 70 0.0 5.8 275 14.8
10:00 - 10:30 9.6 10.6 8.8 66 0.0 5.8 265 14.4
10:30 - 11:00 10.2 10.9 9.5 59 0.0 6.8 265 17.3
11:00 - 11:30 10.8 11.0 10.2 55 0.0 7.2 269 20.2
11:30 - 12:00 11.1 12.0 10.8 52 0.0 6.5 264 16.6
12:00 - 12:30 11.4 12.3 10.3 49 0.0 7.2 260 18.7
12:30 - 13:00 11.9 12.6 11.3 47 0.0 6.8 252 16.6
13:00 - 13:30 12.1 12.7 11.8 46 0.0 6.1 262 16.6
13:30 - 14:00 12.1 12.6 11.7 44 0.0 5.8 265 15.5
14:00 - 14:30 12.5 13.0 12.2 40 0.0 6.1 272 15.1
14:30 - 15:00 12.5 12.9 12.1 39 0.0 5.4 246 17.6
15:00 - 15:30 12.9 13.3 12.6 37 0.0 4.3 252 13.3
15:30 - 16:00 12.9 13.2 12.4 36 0.0 5.0 248 11.9
16:00 - 16:30 12.4 12.6 12.0 34 0.0 4.0 269 9.4
16:30 - 17:00 11.8 12.5 11.0 34 0.0 2.2 242 6.8
17:00 - 17:30 10.1 11.0 9.3 47 0.0 0.7 243 3.2
17:30 - 18:00 9.3 9.6 8.7 49 0.0 2.2 307 5.4
18:00 - 18:30 8.4 8.7 7.9 56 0.0 0.7 349 2.5
18:30 - 19:00 7.4 7.9 7.0 61 0.0 1.1 314 4.0
19:00 - 19:30 6.5 7.1 6.0 64 0.0 1.8 339 5.0
19:30 - 20:00 6.1 6.3 5.8 65 0.0 4.3 321 9.0

Les dades en taronja només han passat un control de qualitat automàtic. Resta pendent la seva validació definitiva.